createdAt,value
2023-02-25T00:00:31.579Z,75.34
2023-02-25T00:02:59.104Z,74.94
2023-02-25T00:05:26.677Z,74.52
2023-02-25T00:07:54.292Z,74.51
2023-02-25T00:10:21.480Z,75.10
2023-02-25T00:12:48.052Z,75.02
2023-02-25T00:15:14.546Z,74.55
2023-02-25T00:17:41.071Z,74.72
2023-02-25T00:20:09.263Z,74.61
2023-02-25T00:22:36.471Z,77.18
2023-02-25T00:25:03.435Z,75.56
2023-02-25T00:27:29.928Z,75.82
2023-02-25T00:29:56.521Z,76.14
2023-02-25T00:32:24.454Z,76.30
2023-02-25T00:34:51.101Z,76.26
2023-02-25T00:37:17.950Z,76.00
2023-02-25T00:39:45.241Z,76.35
2023-02-25T00:42:17.604Z,76.30
2023-02-25T00:44:46.056Z,76.53
2023-02-25T00:47:13.124Z,76.49
2023-02-25T00:49:39.786Z,76.85
2023-02-25T00:52:08.153Z,76.79
2023-02-25T00:54:35.076Z,76.95
2023-02-25T00:57:03.129Z,76.91
2023-02-25T00:59:29.812Z,76.98
2023-02-25T01:01:56.489Z,77.10
2023-02-25T01:04:23.748Z,77.42
2023-02-25T01:06:50.817Z,77.39
2023-02-25T01:09:17.595Z,77.50
2023-02-25T01:11:46.865Z,77.78
2023-02-25T01:14:22.959Z,78.27
2023-02-25T01:16:51.273Z,77.78
2023-02-25T01:19:22.402Z,77.77
2023-02-25T01:21:51.425Z,77.62
2023-02-25T01:24:21.312Z,77.83
2023-02-25T01:26:49.889Z,77.92
2023-02-25T01:29:20.763Z,77.65
2023-02-25T01:31:48.607Z,77.82
2023-02-25T01:34:17.577Z,77.88
2023-02-25T01:36:45.220Z,78.14
2023-02-25T01:39:13.524Z,78.24
2023-02-25T01:41:40.457Z,78.19
2023-02-25T01:44:13.606Z,79.84
2023-02-25T01:46:42.497Z,78.22
2023-02-25T01:49:18.035Z,78.63
2023-02-25T01:51:47.451Z,78.34
2023-02-25T01:54:15.354Z,78.74
2023-02-25T01:56:46.593Z,78.67
2023-02-25T01:59:13.264Z,78.73
2023-02-25T02:01:40.457Z,78.56
2023-02-25T02:04:10.291Z,78.69
2023-02-25T02:06:42.653Z,78.86
2023-02-25T02:09:13.008Z,78.80
2023-02-25T02:11:41.352Z,78.85
2023-02-25T02:14:11.380Z,78.83
2023-02-25T02:16:59.250Z,79.20
2023-02-25T02:19:36.714Z,80.25
2023-02-25T02:22:12.819Z,79.37
2023-02-25T02:24:51.438Z,79.36
2023-02-25T02:27:44.964Z,79.20
2023-02-25T02:30:38.749Z,79.61
2023-02-25T02:33:36.778Z,79.57
2023-02-25T02:36:35.061Z,79.96
2023-02-25T02:39:11.003Z,79.17
2023-02-25T02:41:46.954Z,79.11
2023-02-25T02:44:22.578Z,79.35
2023-02-25T02:46:55.023Z,78.95
2023-02-25T02:49:26.561Z,79.31
2023-02-25T02:51:56.438Z,78.78
2023-02-25T02:54:26.910Z,79.09
2023-02-25T02:56:56.015Z,79.27
2023-02-25T02:59:30.692Z,79.38
2023-02-25T03:02:12.316Z,79.46
2023-02-25T03:04:43.565Z,79.28
2023-02-25T03:07:13.172Z,79.12
2023-02-25T03:10:01.908Z,79.72
2023-02-25T03:12:31.800Z,79.25
2023-02-25T03:14:58.567Z,79.19
2023-02-25T03:17:39.714Z,79.46
2023-02-25T03:20:18.665Z,79.45
2023-02-25T03:22:49.319Z,78.97
2023-02-25T03:25:21.058Z,79.04
2023-02-25T03:27:55.247Z,79.08
2023-02-25T03:30:35.476Z,79.61
2023-02-25T03:33:13.653Z,79.44
2023-02-25T03:35:41.989Z,79.20
2023-02-25T03:38:19.157Z,79.08
2023-02-25T03:40:49.803Z,79.11
2023-02-25T03:43:24.491Z,79.47
2023-02-25T03:45:51.710Z,79.17
2023-02-25T03:48:19.107Z,79.05
2023-02-25T03:50:56.402Z,79.46
2023-02-25T03:53:22.892Z,79.26
2023-02-25T03:55:53.683Z,79.16
2023-02-25T03:58:20.347Z,79.21
2023-02-25T04:00:52.274Z,79.31
2023-02-25T04:03:18.952Z,79.11
2023-02-25T04:05:45.505Z,79.07
2023-02-25T04:08:12.326Z,79.03
2023-02-25T04:10:38.914Z,78.98
2023-02-25T04:13:05.441Z,79.01
2023-02-25T04:15:32.189Z,78.99
2023-02-25T04:17:58.664Z,79.07
2023-02-25T04:20:25.416Z,78.91
2023-02-25T04:22:52.087Z,79.33
2023-02-25T04:25:18.629Z,79.40
2023-02-25T04:27:45.158Z,79.50
2023-02-25T04:30:13.960Z,79.68
2023-02-25T04:32:40.840Z,79.67
2023-02-25T04:35:08.273Z,79.33
2023-02-25T04:37:34.780Z,79.64
2023-02-25T04:40:01.321Z,79.77
2023-02-25T04:42:27.941Z,79.36
2023-02-25T04:44:54.543Z,79.64
2023-02-25T04:47:21.208Z,79.63
2023-02-25T04:49:47.774Z,79.46
2023-02-25T04:52:15.441Z,79.42
2023-02-25T04:54:42.033Z,79.51
2023-02-25T04:57:11.007Z,79.33
2023-02-25T04:59:37.757Z,78.89
2023-02-25T05:02:04.464Z,78.83
2023-02-25T05:04:31.159Z,78.92
2023-02-25T05:06:57.704Z,79.31
2023-02-25T05:09:24.341Z,79.09
2023-02-25T05:11:50.950Z,79.37
2023-02-25T05:14:18.099Z,79.38
2023-02-25T05:16:44.736Z,79.43
2023-02-25T05:19:19.300Z,79.52
2023-02-25T05:21:45.958Z,79.34
2023-02-25T05:24:12.467Z,79.15
2023-02-25T05:26:39.270Z,78.75
2023-02-25T05:29:06.443Z,79.00
2023-02-25T05:31:33.348Z,78.66
2023-02-25T05:33:59.977Z,78.80
2023-02-25T05:36:28.396Z,78.79
2023-02-25T05:38:57.287Z,78.93
2023-02-25T05:41:23.844Z,79.01
2023-02-25T05:43:50.430Z,78.76
2023-02-25T05:46:17.139Z,78.98
2023-02-25T05:48:44.648Z,78.88
2023-02-25T05:51:17.256Z,78.77
2023-02-25T05:53:44.477Z,78.82
2023-02-25T05:56:13.521Z,79.02
2023-02-25T05:58:40.484Z,79.12
2023-02-25T06:01:12.390Z,79.34
2023-02-25T06:03:40.187Z,79.16
2023-02-25T06:06:08.160Z,79.21
2023-02-25T06:08:35.180Z,79.32
2023-02-25T06:11:01.900Z,79.18
2023-02-25T06:13:28.758Z,79.25
2023-02-25T06:15:55.273Z,79.31
2023-02-25T06:18:22.069Z,79.08
2023-02-25T06:20:49.016Z,79.11
2023-02-25T06:23:15.868Z,79.45
2023-02-25T06:25:42.482Z,79.56
2023-02-25T06:28:09.670Z,79.41
2023-02-25T06:30:36.767Z,79.57
2023-02-25T06:33:03.350Z,79.32
2023-02-25T06:35:30.001Z,79.24
2023-02-25T06:37:58.664Z,79.34
2023-02-25T06:40:25.957Z,79.38
2023-02-25T06:42:52.488Z,79.25
2023-02-25T06:45:19.008Z,79.29
2023-02-25T06:47:45.660Z,79.42
2023-02-25T06:50:12.416Z,79.34
2023-02-25T06:52:38.991Z,79.44
2023-02-25T06:55:05.874Z,79.65
2023-02-25T06:57:33.444Z,79.66
2023-02-25T06:59:59.998Z,79.59
2023-02-25T07:02:26.518Z,79.75
2023-02-25T07:04:54.243Z,79.75
2023-02-25T07:07:21.158Z,79.79
2023-02-25T07:09:47.614Z,79.44
2023-02-25T07:12:14.361Z,79.86
2023-02-25T07:14:41.065Z,79.79
2023-02-25T07:17:07.632Z,79.93
2023-02-25T07:19:34.251Z,80.25
2023-02-25T07:22:00.820Z,80.01
2023-02-25T07:24:27.500Z,80.42
2023-02-25T07:26:54.094Z,80.60
2023-02-25T07:29:20.711Z,80.60
2023-02-25T07:31:47.470Z,80.33
2023-02-25T07:34:14.579Z,80.55
2023-02-25T07:36:41.333Z,80.39
2023-02-25T07:39:10.783Z,80.65
2023-02-25T07:41:38.189Z,80.62
2023-02-25T07:44:05.892Z,80.74
2023-02-25T07:46:32.658Z,80.75
2023-02-25T07:48:59.607Z,80.62
2023-02-25T07:51:26.863Z,80.56
2023-02-25T07:53:55.220Z,80.69
2023-02-25T07:56:23.897Z,80.73
2023-02-25T07:58:50.848Z,80.90
2023-02-25T08:01:26.354Z,80.39
2023-02-25T08:03:55.413Z,80.73
2023-02-25T08:06:22.118Z,80.75
2023-02-25T08:08:48.909Z,80.64
2023-02-25T08:11:15.637Z,80.97
2023-02-25T08:13:42.471Z,81.05
2023-02-25T08:16:11.306Z,80.98
2023-02-25T08:18:38.424Z,81.24
2023-02-25T08:21:05.563Z,80.97
2023-02-25T08:23:32.100Z,80.95
2023-02-25T08:25:59.914Z,80.97
2023-02-25T08:28:30.077Z,81.21
2023-02-25T08:30:59.588Z,81.14
2023-02-25T08:33:29.585Z,80.85
2023-02-25T08:36:05.464Z,80.71
2023-02-25T08:38:31.970Z,80.93
2023-02-25T08:41:00.572Z,80.97
2023-02-25T08:43:27.085Z,81.17
2023-02-25T08:45:54.760Z,81.14
2023-02-25T08:48:21.398Z,81.44
2023-02-25T08:50:47.994Z,81.22
2023-02-25T08:53:14.840Z,80.17
2023-02-25T08:55:41.643Z,79.94
2023-02-25T08:58:08.378Z,79.49
2023-02-25T09:00:35.222Z,79.45
2023-02-25T09:03:01.983Z,79.87
2023-02-25T09:05:28.636Z,79.48
2023-02-25T09:07:55.165Z,79.76
2023-02-25T09:10:21.720Z,77.81
2023-02-25T09:12:48.374Z,78.90
2023-02-25T09:15:14.898Z,79.06
2023-02-25T09:17:41.751Z,79.15
2023-02-25T09:20:09.306Z,79.12
2023-02-25T09:22:35.894Z,79.85
2023-02-25T09:25:02.407Z,79.17
2023-02-25T09:27:29.024Z,79.24
2023-02-25T09:29:55.555Z,78.89
2023-02-25T09:32:22.812Z,77.75
2023-02-25T09:34:49.755Z,76.19
2023-02-25T09:37:17.341Z,76.62
2023-02-25T09:39:43.826Z,77.52
2023-02-25T09:42:16.316Z,76.40
2023-02-25T09:44:49.327Z,75.69
2023-02-25T09:47:23.056Z,73.79
2023-02-25T09:50:05.108Z,73.96
2023-02-25T09:52:35.456Z,72.50
2023-02-25T09:55:30.910Z,72.45
2023-02-25T09:58:23.345Z,72.74
2023-02-25T10:00:59.262Z,74.55
2023-02-25T10:03:43.231Z,74.79
2023-02-25T10:06:20.881Z,75.75
2023-02-25T10:09:11.542Z,72.77
2023-02-25T10:11:46.847Z,74.17
2023-02-25T10:14:13.260Z,74.15
2023-02-25T10:16:57.925Z,70.92
2023-02-25T10:19:53.042Z,71.08
2023-02-25T10:22:25.662Z,74.42
2023-02-25T10:24:58.163Z,70.80
2023-02-25T10:27:33.014Z,71.91
2023-02-25T10:30:06.429Z,72.44
2023-02-25T10:32:36.572Z,73.15
2023-02-25T10:35:20.334Z,67.81
2023-02-25T10:37:46.837Z,71.71
2023-02-25T10:40:21.333Z,71.63
2023-02-25T10:42:51.886Z,65.98
2023-02-25T10:45:32.298Z,73.80
2023-02-25T10:48:07.249Z,71.16
2023-02-25T10:50:45.038Z,71.20
2023-02-25T10:53:17.891Z,71.99
2023-02-25T10:55:44.592Z,72.34
2023-02-25T10:58:44.097Z,69.40
2023-02-25T11:01:15.098Z,74.12
2023-02-25T11:03:55.633Z,67.11
2023-02-25T11:06:31.054Z,66.80
2023-02-25T11:09:00.271Z,74.73
2023-02-25T11:11:32.499Z,66.31
2023-02-25T11:14:06.632Z,68.96
2023-02-25T11:16:36.592Z,70.72
2023-02-25T11:19:13.752Z,68.44
2023-02-25T11:21:41.145Z,73.24
2023-02-25T11:24:30.226Z,63.33
2023-02-25T11:26:57.767Z,71.78
2023-02-25T11:29:36.594Z,73.33
2023-02-25T11:32:21.476Z,67.40
2023-02-25T11:35:00.036Z,70.47
2023-02-25T11:37:43.212Z,66.08
2023-02-25T11:40:26.405Z,67.53
2023-02-25T11:43:05.316Z,65.75
2023-02-25T11:45:34.605Z,73.83
2023-02-25T11:48:05.107Z,75.00
2023-02-25T11:50:44.164Z,76.56
2023-02-25T11:53:32.504Z,69.21
2023-02-25T11:56:03.469Z,71.96
2023-02-25T11:59:08.992Z,69.77
2023-02-25T12:01:57.256Z,69.74
2023-02-25T12:04:23.692Z,72.59
2023-02-25T12:07:13.439Z,71.12
2023-02-25T12:09:42.755Z,62.49
2023-02-25T12:12:18.196Z,71.82
2023-02-25T12:15:10.524Z,58.20
2023-02-25T12:21:33.067Z,63.75
2023-02-25T12:24:14.483Z,65.79
2023-02-25T12:26:59.676Z,60.46
2023-02-25T12:29:41.093Z,65.22
2023-02-25T12:32:13.649Z,69.74
2023-02-25T12:35:01.986Z,63.96
2023-02-25T12:38:04.693Z,63.59
2023-02-25T12:41:05.167Z,59.30
2023-02-25T12:43:41.810Z,62.48
2023-02-25T12:46:23.549Z,71.32
2023-02-25T12:49:10.668Z,68.15
2023-02-25T12:51:51.670Z,68.61
2023-02-25T12:54:45.880Z,71.08
2023-02-25T12:57:33.497Z,64.17
2023-02-25T13:00:41.261Z,71.18
2023-02-25T13:03:25.173Z,73.18
2023-02-25T13:06:14.851Z,67.17
2023-02-25T13:09:09.211Z,69.92
2023-02-25T13:12:12.818Z,69.58
2023-02-25T13:15:09.884Z,66.50
2023-02-25T13:17:49.965Z,70.03
2023-02-25T13:20:38.597Z,68.83
2023-02-25T13:23:33.104Z,68.30
2023-02-25T13:26:02.613Z,73.98
2023-02-25T13:29:16.020Z,67.76
2023-02-25T13:31:54.349Z,72.11
2023-02-25T13:35:02.868Z,67.72
2023-02-25T13:37:41.599Z,72.94
2023-02-25T13:40:31.748Z,68.07
2023-02-25T13:43:09.418Z,74.38
2023-02-25T13:46:14.563Z,69.55
2023-02-25T13:48:59.922Z,73.90
2023-02-25T13:52:04.994Z,66.09
2023-02-25T13:54:43.550Z,71.95
2023-02-25T13:57:44.267Z,64.71
2023-02-25T14:00:41.750Z,67.59
2023-02-25T14:03:35.993Z,68.39
2023-02-25T14:06:25.190Z,74.50
2023-02-25T14:09:09.735Z,70.45
2023-02-25T14:12:03.156Z,71.43
2023-02-25T14:15:31.138Z,62.85
2023-02-25T14:18:03.716Z,61.75
2023-02-25T14:20:55.931Z,69.55
2023-02-25T14:23:40.456Z,69.07
2023-02-25T14:26:25.657Z,70.84
2023-02-25T14:29:04.317Z,70.98
2023-02-25T14:31:49.600Z,71.17
2023-02-25T14:34:32.889Z,69.09
2023-02-25T14:37:23.929Z,68.14
2023-02-25T14:39:56.168Z,68.31
2023-02-25T14:42:34.945Z,63.52
2023-02-25T14:45:05.471Z,61.87
2023-02-25T14:47:39.572Z,62.65
2023-02-25T14:50:28.121Z,59.63
2023-02-25T14:53:02.090Z,64.86
2023-02-25T14:55:55.296Z,55.75
2023-02-25T14:59:14.957Z,61.38
2023-02-25T15:02:02.001Z,58.54
2023-02-25T15:04:59.755Z,62.25
2023-02-25T15:07:42.519Z,56.01
2023-02-25T15:10:27.062Z,60.97
2023-02-25T15:13:29.478Z,62.36
2023-02-25T15:16:19.975Z,63.34
2023-02-25T15:19:00.701Z,63.11
2023-02-25T15:21:40.577Z,63.50
2023-02-25T15:24:30.785Z,64.07
2023-02-25T15:26:57.599Z,66.22
2023-02-25T15:29:33.082Z,62.95
2023-02-25T15:32:21.760Z,59.55
2023-02-25T15:35:00.598Z,58.25
2023-02-25T15:37:28.629Z,64.69
2023-02-25T15:39:58.035Z,66.83
2023-02-25T15:42:47.714Z,62.60
2023-02-25T15:45:29.291Z,63.77
2023-02-25T15:48:07.523Z,66.66
2023-02-25T15:50:43.367Z,64.30
2023-02-25T15:53:20.671Z,70.28
2023-02-25T15:55:49.534Z,69.57
2023-02-25T15:58:25.004Z,67.82
2023-02-25T16:01:07.067Z,69.03
2023-02-25T16:03:33.533Z,71.70
2023-02-25T16:06:14.096Z,70.64
2023-02-25T16:09:01.451Z,69.20
2023-02-25T16:11:40.008Z,70.17
2023-02-25T16:14:15.646Z,69.71
2023-02-25T16:16:48.324Z,65.08
2023-02-25T16:19:18.999Z,63.15
2023-02-25T16:21:49.148Z,65.13
2023-02-25T16:24:16.188Z,67.73
2023-02-25T16:26:57.619Z,65.22
2023-02-25T16:29:59.588Z,63.74
2023-02-25T16:32:49.971Z,63.95
2023-02-25T16:35:35.105Z,67.61
2023-02-25T16:38:09.250Z,67.39
2023-02-25T16:40:42.160Z,65.82
2023-02-25T16:43:19.392Z,62.70
2023-02-25T16:46:04.553Z,62.90
2023-02-25T16:48:36.553Z,60.48
2023-02-25T16:51:29.099Z,63.12
2023-02-25T16:54:04.015Z,65.95
2023-02-25T16:56:32.208Z,68.42
2023-02-25T16:59:00.583Z,63.85
2023-02-25T17:01:29.893Z,67.44
2023-02-25T17:04:19.443Z,62.07
2023-02-25T17:07:07.031Z,64.06
2023-02-25T17:09:34.128Z,69.60
2023-02-25T17:12:03.046Z,69.21
2023-02-25T17:14:30.739Z,69.29
2023-02-25T17:16:57.604Z,69.44
2023-02-25T17:19:24.857Z,69.06
2023-02-25T17:21:55.631Z,66.64
2023-02-25T17:24:31.249Z,67.43
2023-02-25T17:26:58.032Z,69.49
2023-02-25T17:29:34.067Z,66.31
2023-02-25T17:32:00.866Z,70.02
2023-02-25T17:34:31.031Z,68.18
2023-02-25T17:37:00.648Z,69.03
2023-02-25T17:39:27.360Z,69.74
2023-02-25T17:41:53.866Z,69.89
2023-02-25T17:44:38.660Z,66.77
2023-02-25T17:47:09.401Z,69.85
2023-02-25T17:49:37.763Z,70.94
2023-02-25T17:52:17.602Z,66.55
2023-02-25T17:54:51.542Z,68.46
2023-02-25T17:57:22.085Z,65.29
2023-02-25T17:59:54.661Z,65.13
2023-02-25T18:02:41.160Z,63.63
2023-02-25T18:05:18.115Z,59.52
2023-02-25T18:08:08.493Z,59.75
2023-02-25T18:10:35.036Z,62.08
2023-02-25T18:13:04.276Z,63.12
2023-02-25T18:15:32.585Z,62.65
2023-02-25T18:18:07.419Z,60.90
2023-02-25T18:20:36.765Z,62.19
2023-02-25T18:23:05.551Z,63.21
2023-02-25T18:25:33.193Z,63.45
2023-02-25T18:28:00.341Z,64.92
2023-02-25T18:30:30.019Z,65.03
2023-02-25T18:32:56.856Z,64.04
2023-02-25T18:35:24.386Z,64.99
2023-02-25T18:37:53.325Z,65.72
2023-02-25T18:40:29.287Z,66.23
2023-02-25T18:42:56.538Z,67.49
2023-02-25T18:45:25.047Z,68.06
2023-02-25T18:47:52.797Z,68.29
2023-02-25T18:50:20.434Z,68.46
2023-02-25T18:52:47.250Z,68.77
2023-02-25T18:55:22.932Z,69.09
2023-02-25T18:57:49.480Z,69.27
2023-02-25T19:00:18.069Z,69.64
2023-02-25T19:02:59.796Z,69.70
2023-02-25T19:05:27.198Z,70.17
2023-02-25T19:07:54.048Z,70.06
2023-02-25T19:10:26.682Z,70.44
2023-02-25T19:13:01.596Z,70.28
2023-02-25T19:15:28.076Z,70.85
2023-02-25T19:17:54.715Z,70.78
2023-02-25T19:20:21.564Z,71.19
2023-02-25T19:22:50.452Z,71.24
2023-02-25T19:25:20.793Z,71.22
2023-02-25T19:27:47.844Z,71.51
2023-02-25T19:30:16.567Z,71.30
2023-02-25T19:32:43.382Z,71.47
2023-02-25T19:35:10.448Z,71.61
2023-02-25T19:37:38.773Z,71.52
2023-02-25T19:40:07.787Z,71.59
2023-02-25T19:42:34.276Z,71.78
2023-02-25T19:45:00.754Z,71.92
2023-02-25T19:47:27.263Z,72.16
2023-02-25T19:49:53.739Z,72.24
2023-02-25T19:52:20.336Z,72.32
2023-02-25T19:54:46.851Z,72.27
2023-02-25T19:57:13.358Z,72.44
2023-02-25T19:59:40.024Z,72.78
2023-02-25T20:02:06.552Z,72.74
2023-02-25T20:04:33.163Z,72.85
2023-02-25T20:06:59.653Z,72.97
2023-02-25T20:09:26.105Z,73.15
2023-02-25T20:11:52.609Z,73.14
2023-02-25T20:14:19.133Z,73.09
2023-02-25T20:16:45.919Z,73.12
2023-02-25T20:19:12.636Z,73.18
2023-02-25T20:21:39.151Z,73.26
2023-02-25T20:24:06.131Z,73.28
2023-02-25T20:26:32.994Z,73.43
2023-02-25T20:29:00.353Z,73.36
2023-02-25T20:31:27.890Z,73.21
2023-02-25T20:33:57.540Z,72.96
2023-02-25T20:36:29.336Z,73.02
2023-02-25T20:39:29.136Z,71.53
2023-02-25T20:41:55.970Z,73.38
2023-02-25T20:44:22.558Z,73.28
2023-02-25T20:46:49.304Z,73.29
2023-02-25T20:49:19.718Z,72.33
2023-02-25T20:51:47.389Z,73.04
2023-02-25T20:54:16.266Z,73.00
2023-02-25T20:56:43.398Z,73.30
2023-02-25T20:59:12.239Z,73.11
2023-02-25T21:01:39.552Z,73.23
2023-02-25T21:04:06.431Z,73.09
2023-02-25T21:06:33.709Z,73.17
2023-02-25T21:09:00.386Z,73.38
2023-02-25T21:11:27.086Z,73.39
2023-02-25T21:13:54.598Z,73.47
2023-02-25T21:16:23.381Z,71.96
2023-02-25T21:18:50.417Z,71.92
2023-02-25T21:21:18.886Z,72.06
2023-02-25T21:23:45.998Z,71.91
2023-02-25T21:26:13.839Z,71.81
2023-02-25T21:28:41.059Z,71.75
2023-02-25T21:31:10.905Z,71.72
2023-02-25T21:33:40.105Z,71.44
2023-02-25T21:36:08.817Z,71.77
2023-02-25T21:38:36.356Z,71.95
2023-02-25T21:41:11.624Z,71.69
2023-02-25T21:43:38.491Z,71.39
2023-02-25T21:46:07.693Z,71.08
2023-02-25T21:48:34.472Z,71.42
2023-02-25T21:51:01.135Z,71.53
2023-02-25T21:53:28.062Z,72.01
2023-02-25T21:55:55.412Z,72.31
2023-02-25T21:58:22.481Z,72.75
2023-02-25T22:00:49.613Z,72.67
2023-02-25T22:03:16.814Z,72.76
2023-02-25T22:05:44.998Z,73.03
2023-02-25T22:08:11.407Z,70.27
2023-02-25T22:10:37.909Z,72.92
2023-02-25T22:13:04.452Z,73.17
2023-02-25T22:15:31.016Z,73.14
2023-02-25T22:17:57.551Z,73.30
2023-02-25T22:20:24.243Z,73.16
2023-02-25T22:22:50.773Z,73.59
2023-02-25T22:25:17.470Z,73.33
2023-02-25T22:27:44.155Z,73.62
2023-02-25T22:30:11.317Z,73.42
2023-02-25T22:32:38.070Z,72.86
2023-02-25T22:35:05.104Z,72.22
2023-02-25T22:37:32.049Z,72.21
2023-02-25T22:39:58.551Z,72.46
2023-02-25T22:42:25.740Z,72.41
2023-02-25T22:44:52.317Z,72.18
2023-02-25T22:47:18.886Z,71.76
2023-02-25T22:49:45.335Z,72.13
2023-02-25T22:52:11.877Z,71.26
2023-02-25T22:54:38.405Z,71.18
2023-02-25T22:57:04.928Z,71.30
2023-02-25T22:59:31.466Z,71.55
2023-02-25T23:01:58.037Z,71.61
2023-02-25T23:04:24.636Z,71.83
2023-02-25T23:06:51.103Z,71.52
2023-02-25T23:09:17.720Z,71.29
2023-02-25T23:11:44.448Z,71.78
2023-02-25T23:14:11.317Z,72.44
2023-02-25T23:16:43.306Z,71.50
2023-02-25T23:19:12.789Z,72.55
2023-02-25T23:21:39.696Z,72.63
2023-02-25T23:24:06.941Z,72.96
2023-02-25T23:26:38.449Z,72.70
2023-02-25T23:29:07.393Z,72.33
2023-02-25T23:31:54.428Z,72.33
2023-02-25T23:34:23.585Z,72.81
2023-02-25T23:36:50.718Z,73.29
2023-02-25T23:39:17.652Z,73.49
2023-02-25T23:41:44.321Z,73.42
2023-02-25T23:44:12.637Z,73.06
2023-02-25T23:46:39.500Z,73.13
2023-02-25T23:49:07.139Z,73.33
2023-02-25T23:51:35.090Z,73.50
2023-02-25T23:54:04.273Z,72.86
2023-02-25T23:56:31.553Z,73.26
2023-02-25T23:58:58.776Z,73.23
